createdAt,value
2019-06-07T00:02:38.379Z,2.20
2019-06-07T00:07:39.822Z,2.60
2019-06-07T00:12:42.238Z,2.47
2019-06-07T00:17:43.581Z,2.47
2019-06-07T00:22:45.741Z,2.50
2019-06-07T00:27:47.161Z,2.40
2019-06-07T00:32:48.628Z,2.53
2019-06-07T00:37:50.048Z,2.53
2019-06-07T00:42:52.223Z,2.20
2019-06-07T00:47:53.633Z,1.80
2019-06-07T00:57:56.868Z,1.97
2019-06-07T01:02:58.275Z,1.90
2019-06-07T01:07:59.697Z,1.93
2019-06-07T01:13:01.585Z,1.70
2019-06-07T01:23:05.180Z,2.03
2019-06-07T01:28:06.508Z,2.10
2019-06-07T01:33:07.903Z,2.13
2019-06-07T01:38:09.312Z,2.10
2019-06-07T01:43:10.709Z,1.60
2019-06-07T01:48:12.322Z,2.00
2019-06-07T01:53:13.686Z,2.20
2019-06-07T01:58:15.096Z,2.13
2019-06-07T02:03:18.373Z,2.73
2019-06-07T02:08:20.097Z,2.87
2019-06-07T02:13:19.330Z,2.50
2019-06-07T02:18:22.958Z,2.63
2019-06-07T02:23:23.998Z,2.40
2019-06-07T02:28:36.544Z,2.63
2019-06-07T02:33:30.432Z,2.30
2019-06-07T02:38:29.396Z,2.97
2019-06-07T02:43:32.423Z,3.27
2019-06-07T02:48:35.427Z,3.20
2019-06-07T02:53:38.375Z,2.87
2019-06-07T02:58:38.387Z,3.63
2019-06-07T03:03:39.570Z,3.20
2019-06-07T03:08:36.741Z,3.20
2019-06-07T03:13:40.785Z,3.07
2019-06-07T03:18:45.287Z,3.53
2019-06-07T03:23:46.668Z,3.30
2019-06-07T03:28:48.075Z,3.60
2019-06-07T03:33:49.516Z,3.53
2019-06-07T03:38:50.893Z,3.47
2019-06-07T03:43:52.440Z,3.63
2019-06-07T03:48:54.601Z,3.70
2019-06-07T03:53:55.904Z,4.20
2019-06-07T03:58:57.222Z,3.80
2019-06-07T04:03:59.305Z,4.60
2019-06-07T04:09:00.650Z,4.87
2019-06-07T04:14:02.190Z,5.17
2019-06-07T04:19:03.585Z,6.00
2019-06-07T04:24:04.905Z,5.27
2019-06-07T04:29:32.568Z,6.10
2019-06-07T04:34:07.592Z,5.03
2019-06-07T04:39:09.520Z,6.37
2019-06-07T04:44:10.893Z,5.37
2019-06-07T04:49:12.275Z,5.50
2019-06-07T04:54:13.617Z,5.03
2019-06-07T04:59:53.747Z,4.53
2019-06-07T05:04:16.304Z,4.67
2019-06-07T05:09:17.764Z,5.60
2019-06-07T05:14:19.213Z,5.27
2019-06-07T05:19:20.549Z,5.60
2019-06-07T05:24:21.952Z,5.47
2019-06-07T05:29:23.334Z,6.13
2019-06-07T05:34:25.432Z,4.80
2019-06-07T05:39:26.805Z,5.23
2019-06-07T05:44:28.178Z,4.73
2019-06-07T05:49:29.597Z,6.00
2019-06-07T05:54:30.962Z,5.63
2019-06-07T05:59:33.726Z,5.33
2019-06-07T06:04:33.836Z,5.50
2019-06-07T06:09:36.366Z,6.13
2019-06-07T06:14:39.590Z,5.53
2019-06-07T06:19:40.712Z,5.83
2019-06-07T06:24:42.301Z,6.37
2019-06-07T06:29:42.311Z,5.27
2019-06-07T06:34:46.214Z,5.23
2019-06-07T06:39:47.622Z,5.70
2019-06-07T06:44:47.155Z,6.23
2019-06-07T06:49:49.137Z,5.03
2019-06-07T06:55:00.897Z,5.50
2019-06-07T07:00:01.848Z,5.47
2019-06-07T07:10:59.341Z,5.97
2019-06-07T07:16:06.528Z,5.60
2019-06-07T07:21:10.797Z,4.30
2019-06-07T07:26:13.688Z,3.67
2019-06-07T07:37:03.467Z,5.43
2019-06-07T07:42:20.289Z,4.47
2019-06-07T07:47:16.424Z,4.87
2019-06-07T07:52:18.102Z,3.50
2019-06-07T07:57:19.780Z,4.27
2019-06-07T08:02:21.364Z,3.70
2019-06-07T08:07:25.695Z,4.10
2019-06-07T08:12:29.269Z,3.93
2019-06-07T08:17:31.899Z,3.50
2019-06-07T08:22:33.909Z,3.83
2019-06-07T08:27:39.102Z,3.07
2019-06-07T08:32:40.579Z,3.50
2019-06-07T08:38:15.190Z,3.40
2019-06-07T08:43:03.232Z,3.00
2019-06-07T08:47:46.804Z,3.63
2019-06-07T08:52:54.834Z,3.87
2019-06-07T08:58:01.491Z,3.37
2019-06-07T09:03:00.932Z,3.57
2019-06-07T09:08:23.662Z,3.70
2019-06-07T09:13:11.156Z,3.50
2019-06-07T09:23:22.398Z,3.20
2019-06-07T09:28:39.878Z,3.33
2019-06-07T09:33:46.775Z,3.50
2019-06-07T09:44:51.436Z,3.67
2019-06-07T09:50:20.357Z,2.83
2019-06-07T09:55:24.747Z,3.13
2019-06-07T10:00:44.072Z,3.63
2019-06-07T10:11:30.642Z,4.50
2019-06-07T10:16:46.068Z,3.50
2019-06-07T10:21:34.835Z,4.47
2019-06-07T10:27:29.301Z,4.63
2019-06-07T10:32:35.569Z,3.90
2019-06-07T10:38:23.547Z,3.67
2019-06-07T10:43:29.918Z,3.03
2019-06-07T10:48:36.197Z,2.73
2019-06-07T10:53:57.085Z,3.20
2019-06-07T10:58:58.829Z,4.33
2019-06-07T11:04:09.607Z,3.80
2019-06-07T11:14:40.004Z,2.50
2019-06-07T11:36:03.253Z,3.10
2019-06-07T11:41:15.898Z,2.97
2019-06-07T11:47:12.476Z,2.63
2019-06-07T12:09:37.938Z,2.80
2019-06-07T12:20:28.047Z,3.23
2019-06-07T12:26:14.779Z,3.00
2019-06-07T12:55:07.679Z,2.73
2019-06-07T13:00:10.024Z,2.73
2019-06-07T13:05:11.687Z,3.23
2019-06-07T13:10:13.447Z,2.40
2019-06-07T13:15:16.735Z,2.92
2019-06-07T13:20:16.399Z,2.60
2019-06-07T13:25:18.461Z,1.98
2019-06-07T13:30:20.776Z,2.75
2019-06-07T13:35:22.415Z,2.20
2019-06-07T13:41:02.747Z,2.58
2019-06-07T13:46:06.133Z,2.05
2019-06-07T13:51:08.164Z,2.60
2019-06-07T13:56:10.394Z,2.00
2019-06-07T14:01:15.313Z,2.25
2019-06-07T14:06:23.496Z,2.37
2019-06-07T14:11:49.150Z,2.55
2019-06-07T14:16:37.068Z,2.42
2019-06-07T14:21:45.028Z,2.75
2019-06-07T14:26:54.395Z,3.12
2019-06-07T14:32:11.202Z,2.47
2019-06-07T14:37:30.966Z,2.75
2019-06-07T14:48:25.803Z,3.03
2019-06-07T15:12:25.124Z,2.35
2019-06-07T15:17:21.783Z,2.05
2019-06-07T15:22:23.212Z,2.80
2019-06-07T15:32:40.310Z,2.25
2019-06-07T15:37:41.823Z,2.10
2019-06-07T15:42:52.897Z,2.50
2019-06-07T15:47:48.409Z,2.50
2019-06-07T15:52:51.350Z,2.92
2019-06-07T15:57:52.687Z,2.22
2019-06-07T16:03:03.738Z,2.20
2019-06-07T16:08:11.861Z,2.60
2019-06-07T16:13:23.272Z,2.30
2019-06-07T16:19:04.418Z,2.12
2019-06-07T16:24:06.836Z,2.30
2019-06-07T16:29:12.962Z,2.50
2019-06-07T16:56:26.085Z,2.60
2019-06-07T17:01:27.696Z,2.90
2019-06-07T17:06:31.497Z,2.53
2019-06-07T17:11:38.249Z,2.45
2019-06-07T17:16:43.241Z,3.00
2019-06-07T17:21:58.115Z,2.83
2019-06-07T17:27:10.809Z,2.72
2019-06-07T18:00:28.970Z,2.20
2019-06-07T18:29:09.037Z,2.67
2019-06-07T18:39:37.476Z,2.78
2019-06-07T19:05:40.211Z,2.97
2019-06-07T19:10:41.860Z,3.45
2019-06-07T19:15:43.540Z,3.47
2019-06-07T19:20:44.742Z,3.58
2019-06-07T19:25:46.241Z,3.70
2019-06-07T19:30:48.434Z,3.10
2019-06-07T19:35:51.419Z,3.90
2019-06-07T19:40:53.783Z,3.47
2019-06-07T19:45:54.321Z,3.37
2019-06-07T19:50:56.876Z,4.45
2019-06-07T19:55:57.905Z,3.50
2019-06-07T20:00:59.674Z,3.80
2019-06-07T20:06:17.785Z,4.00
2019-06-07T20:11:20.704Z,3.90
2019-06-07T20:17:01.377Z,3.70
2019-06-07T20:28:21.869Z,3.43
2019-06-07T20:38:42.645Z,3.23
2019-06-07T20:44:09.296Z,3.60
2019-06-07T20:49:25.004Z,3.00
2019-06-07T21:02:50.598Z,2.70
2019-06-07T21:07:52.173Z,1.83
2019-06-07T21:12:53.606Z,2.03
2019-06-07T21:17:55.070Z,2.07
2019-06-07T21:23:04.711Z,1.60
2019-06-07T21:28:21.676Z,1.63
2019-06-07T21:33:50.367Z,1.60
2019-06-07T21:44:58.184Z,1.00
2019-06-07T21:50:02.631Z,1.00
2019-06-07T22:06:43.175Z,0.95
2019-06-07T22:11:48.237Z,0.90
2019-06-07T22:17:24.875Z,0.90
2019-06-07T22:22:27.282Z,0.80
2019-06-07T22:27:36.615Z,0.77
2019-06-07T22:32:39.623Z,0.70
2019-06-07T22:56:49.415Z,0.80
2019-06-07T23:02:15.089Z,0.70
2019-06-07T23:07:19.194Z,0.90
2019-06-07T23:19:47.622Z,0.80
2019-06-07T23:31:14.435Z,0.70
2019-06-07T23:36:21.356Z,0.67
2019-06-07T23:42:34.292Z,0.60
2019-06-07T23:59:18.756Z,0.80
